createdAt,value
2019-05-01T00:01:31.362Z,6.70
2019-05-01T00:04:19.509Z,8.43
2019-05-01T00:10:07.983Z,8.30
2019-05-01T00:12:38.458Z,7.13
2019-05-01T00:15:11.249Z,7.90
2019-05-01T00:17:41.982Z,8.47
2019-05-01T00:20:12.552Z,7.63
2019-05-01T00:22:43.123Z,8.50
2019-05-01T00:25:13.528Z,8.97
2019-05-01T00:27:44.057Z,8.30
2019-05-01T00:30:28.824Z,8.17
2019-05-01T00:32:48.809Z,8.23
2019-05-01T00:35:19.397Z,8.87
2019-05-01T00:37:49.973Z,7.37
2019-05-01T00:40:20.321Z,8.40
2019-05-01T00:42:53.312Z,7.67
2019-05-01T00:45:23.858Z,8.30
2019-05-01T00:47:54.197Z,9.77
2019-05-01T00:50:24.703Z,9.30
2019-05-01T00:52:55.213Z,8.23
2019-05-01T00:55:59.427Z,8.27
2019-05-01T00:58:48.883Z,8.37
2019-05-01T01:01:29.862Z,8.50
2019-05-01T01:04:01.536Z,8.60
2019-05-01T01:06:32.891Z,8.53
2019-05-01T01:09:04.824Z,8.03
2019-05-01T01:11:36.957Z,10.03
2019-05-01T01:14:07.776Z,9.43
2019-05-01T01:16:41.793Z,9.20
2019-05-01T01:19:12.328Z,9.60
2019-05-01T01:21:42.763Z,9.60
2019-05-01T01:24:13.264Z,8.73
2019-05-01T01:26:43.713Z,8.53
2019-05-01T01:29:15.080Z,8.83
2019-05-01T01:31:45.668Z,8.83
2019-05-01T01:34:16.097Z,8.33
2019-05-01T01:36:47.627Z,9.80
2019-05-01T01:39:18.093Z,9.20
2019-05-01T01:41:48.608Z,10.17
2019-05-01T01:44:25.467Z,10.00
2019-05-01T01:46:56.632Z,10.23
2019-05-01T01:49:27.104Z,12.30
2019-05-01T01:51:57.618Z,11.73
2019-05-01T01:54:28.222Z,11.67
2019-05-01T01:56:58.932Z,12.07
2019-05-01T01:59:29.894Z,11.97
2019-05-01T02:02:20.279Z,13.07
2019-05-01T02:05:07.335Z,11.87
2019-05-01T02:07:38.247Z,12.03
2019-05-01T02:10:09.155Z,11.43
2019-05-01T02:12:40.322Z,13.57
2019-05-01T02:15:10.899Z,11.47
2019-05-01T02:17:41.320Z,8.93
2019-05-01T02:20:13.055Z,10.37
2019-05-01T02:22:44.540Z,10.80
2019-05-01T02:25:16.409Z,13.33
2019-05-01T02:28:08.812Z,11.60
2019-05-01T02:30:41.157Z,17.10
2019-05-01T02:33:14.370Z,12.27
2019-05-01T02:35:45.457Z,16.17
2019-05-01T02:38:17.147Z,14.57
2019-05-01T02:40:56.861Z,18.20
2019-05-01T02:43:30.604Z,15.07
2019-05-01T02:46:04.996Z,17.47
2019-05-01T02:48:38.208Z,11.37
2019-05-01T02:51:09.349Z,20.70
2019-05-01T02:53:42.698Z,12.80
2019-05-01T02:56:38.436Z,21.90
2019-05-01T02:59:11.387Z,13.67
2019-05-01T03:01:47.683Z,17.73
2019-05-01T03:04:14.792Z,16.03
2019-05-01T03:06:46.470Z,17.90
2019-05-01T03:09:18.270Z,12.53
2019-05-01T03:11:55.264Z,8.97
2019-05-01T03:14:28.184Z,10.37
2019-05-01T03:17:03.103Z,9.20
2019-05-01T03:20:06.112Z,9.57
2019-05-01T03:22:47.618Z,7.70
2019-05-01T03:25:18.748Z,11.30
2019-05-01T03:27:49.522Z,9.43
2019-05-01T03:30:20.083Z,11.87
2019-05-01T03:32:50.714Z,9.83
2019-05-01T03:35:21.086Z,15.90
2019-05-01T03:37:51.630Z,11.50
2019-05-01T03:40:22.501Z,10.57
2019-05-01T03:42:56.516Z,9.07
2019-05-01T03:45:22.898Z,9.67
2019-05-01T03:47:55.049Z,9.33
2019-05-01T03:50:25.683Z,8.43
2019-05-01T03:52:56.265Z,8.17
2019-05-01T03:55:26.864Z,8.20
2019-05-01T03:57:57.629Z,7.67
2019-05-01T04:00:59.095Z,7.60
2019-05-01T04:03:36.481Z,7.50
2019-05-01T04:06:07.405Z,8.10
2019-05-01T04:11:20.215Z,8.53
2019-05-01T04:13:50.930Z,8.37
2019-05-01T04:16:22.018Z,8.20
2019-05-01T04:18:56.012Z,9.03
2019-05-01T04:21:24.227Z,7.73
2019-05-01T04:23:54.790Z,7.87
2019-05-01T04:26:25.291Z,9.40
2019-05-01T04:29:14.820Z,8.93
2019-05-01T04:32:22.350Z,8.80
2019-05-01T04:35:12.335Z,8.37
2019-05-01T04:37:43.069Z,8.37
2019-05-01T04:40:13.819Z,8.37
2019-05-01T04:42:44.334Z,8.87
2019-05-01T04:45:15.098Z,8.40
2019-05-01T04:47:45.649Z,9.00
2019-05-01T04:50:16.804Z,8.77
2019-05-01T04:52:47.350Z,7.87
2019-05-01T04:55:17.727Z,8.53
2019-05-01T04:57:49.554Z,8.43
2019-05-01T05:00:20.035Z,9.80
2019-05-01T05:03:04.812Z,9.33
2019-05-01T05:05:33.914Z,9.33
2019-05-01T05:08:04.375Z,9.23
2019-05-01T05:10:35.198Z,10.70
2019-05-01T05:13:35.104Z,10.53
2019-05-01T05:16:25.900Z,12.50
2019-05-01T05:18:56.645Z,9.70
2019-05-01T05:21:27.549Z,11.33
2019-05-01T05:27:08.335Z,12.83
2019-05-01T05:29:42.738Z,9.83
2019-05-01T05:32:12.403Z,12.00
2019-05-01T05:34:44.464Z,10.50
2019-05-01T05:37:21.753Z,19.00
2019-05-01T05:39:53.526Z,13.20
2019-05-01T05:42:24.024Z,11.10
2019-05-01T05:44:54.704Z,14.13
2019-05-01T05:47:25.684Z,11.27
2019-05-01T05:49:56.402Z,11.40
2019-05-01T05:52:41.994Z,11.43
2019-05-01T05:55:32.230Z,14.80
2019-05-01T05:58:31.737Z,13.23
2019-05-01T06:01:21.788Z,14.07
2019-05-01T06:04:13.248Z,11.87
2019-05-01T06:06:59.674Z,15.87
2019-05-01T06:09:39.815Z,19.97
2019-05-01T06:12:46.900Z,16.53
2019-05-01T06:15:41.274Z,15.40
2019-05-01T06:18:04.076Z,17.17
2019-05-01T06:21:05.435Z,16.30
2019-05-01T06:23:52.716Z,12.20
2019-05-01T06:30:46.916Z,8.60
2019-05-01T06:33:14.425Z,14.67
2019-05-01T06:35:45.213Z,13.13
2019-05-01T06:38:18.043Z,10.47
2019-05-01T06:40:52.979Z,11.93
2019-05-01T06:43:47.594Z,10.60
2019-05-01T06:49:08.558Z,11.13
2019-05-01T06:49:29.448Z,12.13
2019-05-01T06:52:01.149Z,8.37
2019-05-01T06:54:32.938Z,9.47
2019-05-01T06:57:22.049Z,11.90
2019-05-01T06:59:36.291Z,9.37
2019-05-01T07:02:15.869Z,8.07
2019-05-01T07:04:46.185Z,8.63
2019-05-01T07:07:25.235Z,8.73
2019-05-01T07:09:53.174Z,8.33
2019-05-01T07:12:28.359Z,7.67
2019-05-01T07:14:59.095Z,8.97
2019-05-01T07:17:29.787Z,8.83
2019-05-01T07:20:18.229Z,8.40
2019-05-01T07:22:49.205Z,8.57
2019-05-01T07:25:20.099Z,8.60
2019-05-01T07:27:53.876Z,8.33
2019-05-01T07:31:04.881Z,8.63
2019-05-01T07:33:34.708Z,7.43
2019-05-01T07:36:11.828Z,7.70
2019-05-01T07:38:40.548Z,7.73
2019-05-01T07:44:43.094Z,8.03
2019-05-01T07:47:30.511Z,7.97
2019-05-01T07:50:05.313Z,6.30
2019-05-01T07:52:35.886Z,6.87
2019-05-01T07:55:42.138Z,7.10
2019-05-01T07:58:16.124Z,6.80
2019-05-01T08:01:06.173Z,5.90
2019-05-01T08:03:38.009Z,5.00
2019-05-01T08:06:09.101Z,5.90
2019-05-01T08:08:47.653Z,5.30
2019-05-01T08:11:18.395Z,4.50
2019-05-01T08:13:50.538Z,4.53
2019-05-01T08:16:21.209Z,4.37
2019-05-01T08:19:10.656Z,4.53
2019-05-01T08:21:50.099Z,4.73
2019-05-01T08:24:22.902Z,5.30
2019-05-01T08:30:23.205Z,4.80
2019-05-01T08:33:21.527Z,5.47
2019-05-01T08:36:00.735Z,4.77
2019-05-01T08:38:34.240Z,4.90
2019-05-01T08:41:03.475Z,4.13
2019-05-01T08:43:34.885Z,4.80
2019-05-01T08:46:36.290Z,4.63
2019-05-01T08:49:19.456Z,4.67
2019-05-01T08:51:50.224Z,5.00
2019-05-01T08:54:20.776Z,4.93
2019-05-01T08:56:52.939Z,4.47
2019-05-01T08:59:25.846Z,4.47
2019-05-01T09:02:08.859Z,4.80
2019-05-01T09:04:30.662Z,4.40
2019-05-01T09:07:33.499Z,4.63
2019-05-01T09:09:39.812Z,4.17
2019-05-01T09:12:11.848Z,4.50
2019-05-01T09:14:41.686Z,5.10
2019-05-01T09:17:12.979Z,4.73
2019-05-01T09:19:46.299Z,4.50
2019-05-01T09:22:21.163Z,4.70
2019-05-01T09:24:52.238Z,4.77
2019-05-01T09:27:59.503Z,4.60
2019-05-01T09:30:35.359Z,4.83
2019-05-01T09:36:32.879Z,4.53
2019-05-01T09:39:05.155Z,3.97
2019-05-01T09:41:38.538Z,4.13
2019-05-01T09:44:10.771Z,4.47
2019-05-01T09:46:40.299Z,4.40
2019-05-01T09:49:14.260Z,4.10
2019-05-01T09:51:55.579Z,4.40
2019-05-01T09:54:51.103Z,4.47
2019-05-01T10:00:48.830Z,4.03
2019-05-01T10:03:18.181Z,4.47
2019-05-01T10:05:48.811Z,4.53
2019-05-01T10:08:19.344Z,4.20
2019-05-01T10:14:04.079Z,4.00
2019-05-01T10:16:33.639Z,4.20
2019-05-01T10:19:04.304Z,3.87
2019-05-01T10:21:34.790Z,4.03
2019-05-01T10:27:35.740Z,4.17
2019-05-01T10:30:36.285Z,4.23
2019-05-01T10:33:11.880Z,4.10
2019-05-01T10:36:00.081Z,4.17
2019-05-01T10:38:33.538Z,4.17
2019-05-01T10:41:09.216Z,4.03
2019-05-01T10:43:45.591Z,3.70
2019-05-01T10:46:15.769Z,4.37
2019-05-01T10:48:50.145Z,3.90
2019-05-01T10:51:20.610Z,3.10
2019-05-01T10:53:51.091Z,4.00
2019-05-01T10:56:21.638Z,4.20
2019-05-01T10:58:52.099Z,3.57
2019-05-01T11:01:35.397Z,3.90
2019-05-01T11:04:05.986Z,3.50
2019-05-01T11:06:38.021Z,3.77
2019-05-01T11:09:09.523Z,3.23
2019-05-01T11:11:40.020Z,3.77
2019-05-01T11:14:40.494Z,3.73
2019-05-01T11:17:11.165Z,3.23
2019-05-01T11:19:41.629Z,3.27
2019-05-01T11:22:12.154Z,4.13
2019-05-01T11:24:42.602Z,3.60
2019-05-01T11:27:13.536Z,3.20
2019-05-01T11:29:44.043Z,3.20
2019-05-01T11:32:39.499Z,3.37
2019-05-01T11:35:47.164Z,3.83
2019-05-01T11:38:55.756Z,3.87
2019-05-01T11:41:30.820Z,3.63
2019-05-01T11:44:01.368Z,3.80
2019-05-01T11:46:32.009Z,3.63
2019-05-01T11:49:38.470Z,4.27
2019-05-01T11:52:08.980Z,3.93
2019-05-01T11:54:39.325Z,4.43
2019-05-01T11:57:09.876Z,4.40
2019-05-01T11:59:40.448Z,3.90
2019-05-01T12:02:44.277Z,4.30
2019-05-01T12:05:10.515Z,4.10
2019-05-01T12:07:41.192Z,4.33
2019-05-01T12:10:14.307Z,3.67
2019-05-01T12:12:44.081Z,3.60
2019-05-01T12:15:17.072Z,3.97
2019-05-01T12:17:54.458Z,4.00
2019-05-01T12:20:22.844Z,3.70
2019-05-01T12:22:53.345Z,3.70
2019-05-01T12:25:24.867Z,3.30
2019-05-01T12:27:55.422Z,3.27
2019-05-01T12:30:25.975Z,3.70
2019-05-01T12:32:56.617Z,3.90
2019-05-01T12:35:33.980Z,3.30
2019-05-01T12:38:08.041Z,3.60
2019-05-01T12:40:38.631Z,3.93
2019-05-01T12:43:12.086Z,3.53
2019-05-01T12:45:45.882Z,3.60
2019-05-01T12:48:16.450Z,4.00
2019-05-01T12:54:17.351Z,3.57
2019-05-01T12:56:53.650Z,3.87
2019-05-01T12:59:24.162Z,3.53
2019-05-01T13:01:54.671Z,3.50
2019-05-01T13:07:36.368Z,3.50
2019-05-01T13:10:06.961Z,3.97
2019-05-01T13:12:37.436Z,4.20
2019-05-01T13:15:07.994Z,4.80
2019-05-01T13:20:49.915Z,3.63
2019-05-01T13:23:36.491Z,4.37
2019-05-01T13:26:27.335Z,3.77
2019-05-01T13:29:28.870Z,3.43
2019-05-01T13:32:30.175Z,3.53
2019-05-01T13:35:00.765Z,3.70
2019-05-01T13:37:31.631Z,4.50
2019-05-01T13:40:08.983Z,4.03
2019-05-01T13:42:40.341Z,3.93
2019-05-01T13:45:11.605Z,3.87
2019-05-01T13:47:42.197Z,4.00
2019-05-01T13:50:26.570Z,3.87
2019-05-01T13:53:58.381Z,4.10
2019-05-01T13:56:30.537Z,3.60
2019-05-01T13:59:06.317Z,3.80
2019-05-01T14:01:38.116Z,4.50
2019-05-01T14:04:08.725Z,4.23
2019-05-01T14:06:39.369Z,3.63
2019-05-01T14:09:12.270Z,3.60
2019-05-01T14:11:43.175Z,3.43
2019-05-01T14:14:13.712Z,4.30
2019-05-01T14:16:44.251Z,3.97
2019-05-01T14:19:14.892Z,3.60
2019-05-01T14:21:51.255Z,3.43
2019-05-01T14:24:26.799Z,3.70
2019-05-01T14:26:57.366Z,3.70
2019-05-01T14:29:28.898Z,3.50
2019-05-01T14:32:00.820Z,3.10
2019-05-01T14:34:31.386Z,3.60
2019-05-01T14:37:01.923Z,2.93
2019-05-01T14:39:32.436Z,3.17
2019-05-01T14:42:02.933Z,3.80
2019-05-01T14:44:37.308Z,3.70
2019-05-01T14:47:07.967Z,3.70
2019-05-01T14:49:38.851Z,3.40
2019-05-01T14:52:09.467Z,3.50
2019-05-01T14:54:49.709Z,3.60
2019-05-01T14:57:20.237Z,3.20
2019-05-01T14:59:54.565Z,3.20
2019-05-01T15:02:20.295Z,3.13
2019-05-01T15:04:50.800Z,3.10
2019-05-01T15:07:21.427Z,2.93
2019-05-01T15:09:52.042Z,3.30
2019-05-01T15:12:22.475Z,4.33
2019-05-01T15:15:02.245Z,4.50
2019-05-01T15:17:51.759Z,4.60
2019-05-01T15:20:22.216Z,5.00
2019-05-01T15:22:52.757Z,4.37
2019-05-01T15:25:23.339Z,4.73
2019-05-01T15:27:54.045Z,4.60
2019-05-01T15:30:24.577Z,4.47
2019-05-01T15:32:54.905Z,4.50
2019-05-01T15:35:25.346Z,4.63
2019-05-01T15:37:57.140Z,4.93
2019-05-01T15:40:34.438Z,4.23
2019-05-01T15:43:23.782Z,4.57
2019-05-01T15:45:54.321Z,4.90
2019-05-01T15:48:24.797Z,4.30
2019-05-01T15:50:55.476Z,4.73
2019-05-01T16:02:28.926Z,4.83
2019-05-01T16:04:59.519Z,4.30
2019-05-01T16:07:29.995Z,5.13
2019-05-01T16:10:00.935Z,4.47
2019-05-01T16:12:42.708Z,5.20
2019-05-01T16:15:28.292Z,5.03
2019-05-01T16:18:01.908Z,5.07
2019-05-01T16:20:29.842Z,4.77
2019-05-01T16:23:00.483Z,4.30
2019-05-01T16:25:31.791Z,4.53
2019-05-01T16:28:02.306Z,4.43
2019-05-01T16:30:49.738Z,4.53
2019-05-01T16:33:18.956Z,5.27
2019-05-01T16:35:50.187Z,4.63
2019-05-01T16:38:30.174Z,4.13
2019-05-01T16:41:03.702Z,4.47
2019-05-01T16:47:00.066Z,4.50
2019-05-01T16:49:31.632Z,4.87
2019-05-01T16:52:03.760Z,4.47
2019-05-01T16:54:39.213Z,4.60
2019-05-01T16:57:12.765Z,4.77
2019-05-01T16:59:45.603Z,4.40
2019-05-01T17:02:42.307Z,4.50
2019-05-01T17:05:43.881Z,5.43
2019-05-01T17:08:45.587Z,4.73
2019-05-01T17:11:16.426Z,4.83
2019-05-01T17:13:54.246Z,4.77
2019-05-01T17:16:16.194Z,5.33
2019-05-01T17:18:51.011Z,4.97
2019-05-01T17:21:16.063Z,5.00
2019-05-01T17:23:51.621Z,4.77
2019-05-01T17:27:04.318Z,4.67
2019-05-01T17:29:10.555Z,4.50
2019-05-01T17:31:43.038Z,4.63
2019-05-01T17:34:13.509Z,5.07
2019-05-01T17:36:43.900Z,5.47
2019-05-01T17:39:14.760Z,5.33
2019-05-01T17:41:45.237Z,4.80
2019-05-01T17:44:20.113Z,4.90
2019-05-01T17:46:51.576Z,5.20
2019-05-01T17:49:25.471Z,4.60
2019-05-01T17:51:55.960Z,4.40
2019-05-01T17:54:26.548Z,4.00
2019-05-01T17:56:57.072Z,5.17
2019-05-01T18:00:03.357Z,4.40
2019-05-01T18:02:50.061Z,4.67
2019-05-01T18:05:35.327Z,4.67
2019-05-01T18:08:10.971Z,4.83
2019-05-01T18:10:38.655Z,4.57
2019-05-01T18:13:07.745Z,4.57
2019-05-01T18:15:38.437Z,4.27
2019-05-01T18:18:10.888Z,4.37
2019-05-01T18:24:23.220Z,4.47
2019-05-01T19:36:33.346Z,4.13
2019-05-01T19:39:06.839Z,5.33
2019-05-01T19:41:37.685Z,4.30
2019-05-01T19:44:08.341Z,4.63
2019-05-01T19:46:41.618Z,4.87
2019-05-01T19:49:13.783Z,5.30
2019-05-01T19:51:44.351Z,4.97
2019-05-01T19:54:14.692Z,4.53
2019-05-01T19:56:45.418Z,4.93
2019-05-01T19:59:23.553Z,4.90
2019-05-01T20:01:56.538Z,4.57
2019-05-01T20:04:27.150Z,5.67
2019-05-01T20:06:58.082Z,4.90
2019-05-01T20:09:28.891Z,4.83
2019-05-01T20:11:59.387Z,4.63
2019-05-01T20:14:29.918Z,4.77
2019-05-01T20:17:04.462Z,4.10
2019-05-01T20:19:32.682Z,5.20
2019-05-01T20:22:03.603Z,4.70
2019-05-01T20:24:34.094Z,4.50
2019-05-01T20:27:04.818Z,4.90
2019-05-01T20:29:37.267Z,5.00
2019-05-01T20:32:08.041Z,4.50
2019-05-01T20:34:40.643Z,4.93
2019-05-01T20:37:11.082Z,5.17
2019-05-01T20:39:41.484Z,5.03
2019-05-01T20:42:12.093Z,4.90
2019-05-01T20:44:42.783Z,4.97
2019-05-01T20:47:13.589Z,4.87
2019-05-01T20:49:44.140Z,5.10
2019-05-01T20:52:14.578Z,4.03
2019-05-01T20:54:45.140Z,5.13
2019-05-01T21:07:36.142Z,4.50
2019-05-01T21:10:07.279Z,5.70
2019-05-01T21:12:37.758Z,5.27
2019-05-01T21:15:08.474Z,5.30
2019-05-01T21:17:38.999Z,5.07
2019-05-01T21:20:09.706Z,5.20
2019-05-01T21:22:40.281Z,5.10
2019-05-01T21:25:10.642Z,5.57
2019-05-01T21:27:41.364Z,5.20
2019-05-01T21:30:13.862Z,4.70
2019-05-01T21:32:44.468Z,4.93
2019-05-01T21:35:15.093Z,4.97
2019-05-01T21:37:45.537Z,5.40
2019-05-01T21:40:15.978Z,5.13
2019-05-01T21:42:47.298Z,5.33
2019-05-01T21:45:18.438Z,5.30
2019-05-01T21:47:49.002Z,4.83
2019-05-01T21:50:22.870Z,4.70
2019-05-01T21:52:53.644Z,5.50
2019-05-01T21:55:25.616Z,4.93
2019-05-01T21:57:55.726Z,4.57
2019-05-01T22:00:27.757Z,5.13
2019-05-01T22:02:59.847Z,5.17
2019-05-01T22:05:30.283Z,5.13
2019-05-01T22:08:03.674Z,5.03
2019-05-01T22:10:32.782Z,5.23
2019-05-01T22:13:03.406Z,5.50
2019-05-01T22:15:42.147Z,4.87
2019-05-01T22:18:18.577Z,5.37
2019-05-01T22:20:53.629Z,4.50
2019-05-01T22:23:24.234Z,4.43
2019-05-01T22:25:56.098Z,6.00
2019-05-01T22:28:32.116Z,4.97
2019-05-01T22:31:24.493Z,5.23
2019-05-01T22:34:02.447Z,4.93
2019-05-01T22:36:32.893Z,5.00
2019-05-01T22:39:05.990Z,5.00
2019-05-01T22:41:37.678Z,4.77
2019-05-01T22:44:08.097Z,5.20
2019-05-01T22:46:38.988Z,4.73
2019-05-01T22:49:10.524Z,5.40
2019-05-01T22:51:40.942Z,5.43
2019-05-01T22:54:11.352Z,5.03
2019-05-01T22:56:41.759Z,5.27
2019-05-01T22:59:12.654Z,5.17
2019-05-01T23:01:44.603Z,5.20
2019-05-01T23:04:17.097Z,5.20
2019-05-01T23:06:47.178Z,5.10
2019-05-01T23:09:18.659Z,5.13
2019-05-01T23:11:49.067Z,5.53
2019-05-01T23:14:21.268Z,5.77
2019-05-01T23:17:05.508Z,5.03
2019-05-01T23:19:36.972Z,5.13
2019-05-01T23:22:08.254Z,5.77
2019-05-01T23:27:52.348Z,5.23
2019-05-01T23:29:58.227Z,4.87
2019-05-01T23:32:28.683Z,5.50
2019-05-01T23:34:59.216Z,5.07
2019-05-01T23:37:29.726Z,4.33
2019-05-01T23:40:00.183Z,4.03
2019-05-01T23:42:30.661Z,5.23
2019-05-01T23:45:01.116Z,5.60
2019-05-01T23:47:31.599Z,4.53
2019-05-01T23:50:02.032Z,4.90
2019-05-01T23:52:34.017Z,5.07
2019-05-01T23:55:04.862Z,5.03
2019-05-01T23:57:35.230Z,5.53
